Nearby METAR Reports

 

K1V4 - St. Johnsbury, Vermont, USA
Distance from station: NNW 15mi, 24km
Updated: 10/21/2021 8:54pm

 
Temperature: 52°F , 11°C
Dew Point: 52°F , 11°C
Humidity: 100%
Barometer: 29.80 inHg , 1009.1 hPa
2021/10/22 00:54 K1V4 220054Z AUTO 11/11 A2980 RMK AO1 SLP091 T01110106
KHIE - Whitefield, New Hampshire, USA
Distance from station: ENE 21mi, 34km
Updated: 10/21/2021 9:05pm
Fog, Overcast
Fog, Overcast
 Wind from calm
Wind: Calm
Temperature: 46°F , 8°C
Dew Point: 46°F , 8°C
Humidity: 100%
Barometer: 29.81 inHg , 1009.5 hPa
Summary: Fog
Clouds: Overcast
Visibility: 1/4 mile , 0.4 km
Cloud details: Overcast 100 ft
2021/10/22 01:05 KHIE 220105Z AUTO 00000KT 1/4SM FG VV001 08/08 A2981 RMK AO2 T00780078
KCDA - Lyndonville, Vermont, USA
Distance from station: NNW 25mi, 40km
Updated: 10/21/2021 9:15pm
Light rain, Overcast
Light rain, Overcast
 Wind from SW
Wind: SW 3 mph , 6 km/h
Temperature: 50°F , 10°C
Dew Point: 48°F , 9°C
Humidity: 94%
Barometer: 29.84 inHg , 1010.5 hPa
Summary: Light rain
Clouds: Overcast
Visibility: less than 1/4 mile , 0.4 km
Cloud details: Overcast 100 ft
2021/10/22 01:15 KCDA 220115Z AUTO 22003KT M1/4SM -RA OVC001 10/09 A2984 RMK AO2 T00980094
 
K1P1 - Plymouth, New Hampshire, USA
Distance from station: SSE 31mi, 49km
Updated: 10/21/2021 9:15pm
Fog, Overcast
Fog, Overcast
 Wind from calm
Wind: Calm
Temperature: 50°F , 10°C
Dew Point: 50°F , 10°C
Humidity: 100%
Barometer: 29.85 inHg , 1010.8 hPa
Summary: Fog
Clouds: Overcast
Visibility: 1/4 mile , 0.4 km
Cloud details: Overcast 100 ft
2021/10/22 01:15 K1P1 220115Z AUTO 00000KT 1/4SM FG OVC001 10/10 A2985 RMK AO2 T01000095
KMWN - Mount Washington, New Hampshire, USA
Distance from station: E 31mi, 49km
Updated: 10/21/2021 8:51pm
Fog, Overcast
Fog, Overcast
 Wind from S
Wind: S 32 mph , 52 km/h
Temperature: 39°F , 4°C
Wind Chill: 27°F , -3°C
Dew Point: 39°F , 4°C
Humidity: 100%
Summary: Fog
Clouds: Overcast
Visibility: 0 miles , 0 km
Cloud details: Overcast 0 ft
2021/10/22 00:51 KMWN 220051Z 19028KT 0SM FG VV000 04/04 RMK
KMPV - Montpelier/Barre, Vermont, USA
Distance from station: W 32mi, 52km
Updated: 10/21/2021 9:04pm
Fog, Overcast
Fog, Overcast
 Wind from calm
Wind: Calm
Temperature: 50°F , 10°C
Dew Point: 48°F , 9°C
Humidity: 94%
Barometer: 29.85 inHg , 1010.8 hPa
Summary: Fog
Clouds: Overcast
Visibility: 1/4 mile , 0.4 km
Cloud details: Overcast 100 ft
2021/10/22 01:04 KMPV 220104Z AUTO 00000KT 1/4SM FG VV001 10/09 A2985 RMK AO2 T01000089
 
KMVL - Morrisville, Vermont, USA
Distance from station: WNW 41mi, 66km
Updated: 10/21/2021 8:54pm
Fog, Overcast
Fog, Overcast
 Wind from SW
Wind: SW 5 mph , 7 km/h
Temperature: 48°F , 9°C
Wind Chill: 46°F , 8°C
Dew Point: 48°F , 9°C
Humidity: 100%
Barometer: 29.80 inHg , 1009.1 hPa
Summary: Fog
Clouds: Overcast
Visibility: 1/4 mile , 0.4 km
Cloud details: Overcast 100 ft
2021/10/22 00:54 KMVL 220054Z AUTO 22004KT 1/4SM FG VV001 09/09 A2980 RMK AO2 SLP096 T00940094
KBML - Berlin, New Hampshire, USA
Distance from station: NE 44mi, 71km
Updated: 10/21/2021 9:07pm
Fog, Overcast
Fog, Overcast
 Wind from calm
Wind: Calm
Temperature: 48°F , 9°C
Dew Point: 46°F , 8°C
Humidity: 94%
Barometer: 29.84 inHg , 1010.5 hPa
Summary: Fog
Clouds: Overcast
Visibility: less than 1/4 mile , 0.4 km
Cloud details: Overcast 100 ft
2021/10/22 01:07 KBML 220107Z AUTO 00000KT M1/4SM FG VV001 09/08 A2984 RMK AO2 T00890078
KLEB - Lebanon, New Hampshire, USA
Distance from station: SSW 44mi, 71km
Updated: 10/21/2021 9:13pm
Mist, Overcast
Mist, Overcast
 Wind from calm
Wind: Calm
Temperature: 50°F , 10°C
Dew Point: 46°F , 8°C
Humidity: 88%
Barometer: 29.81 inHg , 1009.5 hPa
Summary: Mist
Clouds: Overcast
Visibility: 3/4 mile , 1.2 km
Cloud details: Overcast 100 ft
2021/10/22 01:13 KLEB 220113Z 00000KT 3/4SM BR OVC001 10/08 A2981 RMK AO2 T01000083
 
KEFK - Newport State, Vermont, USA
Distance from station: NNW 49mi, 79km
Updated: 10/21/2021 9:15pm
Clear
Clear
 Wind from S
Wind: S 5 mph , 7 km/h
Temperature: 54°F , 12°C
Dew Point: 52°F , 11°C
Humidity: 94%
Barometer: 29.82 inHg , 1009.8 hPa
Clouds: Clear
Visibility: 10 miles , 16 km
2021/10/22 01:15 KEFK 220115Z AUTO 17004KT 10SM CLR 12/11 A2982 RMK AO2 T01180105
KIZG - Fryeburg, Maine, USA
Distance from station: ESE 50mi, 81km
Updated: 10/21/2021 9:03pm
Mostly cloudy
Mostly cloudy
 Wind from calm
Wind: Calm
Temperature: 48°F , 9°C
Dew Point: 46°F , 8°C
Humidity: 94%
Barometer: 29.88 inHg , 1011.9 hPa
Clouds: Mostly cloudy
Visibility: 10 miles , 16 km
Cloud details: Mostly cloudy 500 ft
2021/10/22 01:03 KIZG 220103Z AUTO 00000KT 10SM BKN005 09/08 A2988 RMK AO2 T00890083
KLCI - Laconia Muni, New Hampshire, USA
Distance from station: SSE 51mi, 82km
Updated: 10/21/2021 8:56pm
Clear
Clear
 Wind from calm
Wind: Calm
Temperature: 54°F , 12°C
Dew Point: 54°F , 12°C
Humidity: 100%
Barometer: 29.85 inHg , 1010.8 hPa
Clouds: Clear
Visibility: 8 miles , 13 km
2021/10/22 00:56 KLCI 220056Z AUTO 00000KT 8SM CLR 12/12 A2985 RMK AO2 SLP110 T01220122
 
K6B0 - Middlebury, Vermont, USA
Distance from station: WSW 61mi, 98km
Updated: 10/18/2021 1:37pm
NOT Current
Overcast
Overcast
 Wind from NW
Wind: NW 6 mph , 9 km/h
Temperature: 48°F , 9°C
Wind Chill: 45°F , 7°C
Dew Point: 37°F , 3°C
Humidity: 66%
Barometer: 29.79 inHg , 1008.8 hPa
Clouds: Overcast
Visibility: 10 miles , 16 km
Cloud details: Partly cloudy 3200 ft
Overcast 4400 ft
2021/10/18 17:37 K6B0 181737Z AUTO 31005KT 10SM SCT032 OVC044 09/03 A2979 RMK AO2 T00900033
KBTV - Burlington, Vermont, USA
Distance from station: WNW 63mi, 102km
Updated: 10/21/2021 8:54pm
Mostly cloudy
Mostly cloudy
 Wind from S
Wind: S 6 mph , 9 km/h
Temperature: 57°F , 14°C
Dew Point: 54°F , 12°C
Humidity: 88%
Barometer: 29.77 inHg , 1008.1 hPa
Clouds: Mostly cloudy
Visibility: 10 miles , 16 km
Cloud details: Few Clouds 12000 ft
Mostly cloudy 19000 ft
2021/10/22 00:54 KBTV 220054Z 17005KT 10SM FEW120 BKN190 14/12 A2977 RMK AO2 SLP081 T01390117
KVSF - Springfield, Vermont, USA
Distance from station: SSW 67mi, 107km
Updated: 10/21/2021 8:54pm
Few Clouds
Few Clouds
 Wind from calm
Wind: Calm
Temperature: 52°F , 11°C
Dew Point: 52°F , 11°C
Humidity: 100%
Barometer: 29.83 inHg , 1010.2 hPa
Clouds: Few Clouds
Visibility: 9 miles , 14 km
Cloud details: Few Clouds 200 ft
2021/10/22 00:54 KVSF 220054Z AUTO 00000KT 9SM FEW002 11/11 A2983 RMK AO2 SLP103 T01110106
 
KRUT - Rutland State, Vermont, USA
Distance from station: SW 70mi, 113km
Updated: 10/21/2021 8:56pm
Clear
Clear
 Wind from SE
Wind: SE 10 mph , 17 km/h
Temperature: 55°F , 13°C
Dew Point: 52°F , 11°C
Humidity: 88%
Barometer: 29.80 inHg , 1009.1 hPa
Clouds: Clear
Visibility: 10 miles , 16 km
2021/10/22 00:56 KRUT 220056Z AUTO 13009KT 10SM CLR 13/11 A2980 RMK AO2 SLP086 T01280111 PNO $
CWFQ - Frelighsburg, Quebec, Canada
Distance from station: NW 72mi, 116km
Updated: 10/21/2021 9:00pm

 Wind from SSE
Wind: SSE 5 mph , 7 km/h
Temperature: 55°F , 13°C
Dew Point: 52°F , 11°C
Humidity: 88%
2021/10/22 01:00 CWFQ 220100Z AUTO 15004KT 13/11 RMK AO1 SLP076 T01330110 57010
KCON - Concord, New Hampshire, USA
Distance from station: SSE 73mi, 117km
Updated: 10/21/2021 8:51pm
Clear
Clear
 Wind from calm
Wind: Calm
Temperature: 57°F , 14°C
Dew Point: 48°F , 9°C
Humidity: 72%
Barometer: 29.85 inHg , 1010.8 hPa
Clouds: Clear
Visibility: 10 miles , 16 km
2021/10/22 00:51 KCON 220051Z AUTO 00000KT 10SM CLR 14/09 A2985 RMK AO2 SLP108 T01390094
 
CWTT - Lac Memphremagog, Quebec, Canada
Distance from station: N 74mi, 119km
Updated: 10/21/2021 9:00pm

 Wind from S
Wind: S 6 mph , 9 km/h
Temperature: 57°F , 14°C
Dew Point: 50°F , 10°C
Humidity: 77%
2021/10/22 01:00 CWTT 220100Z AUTO 18005KT 14/10 RMK AO1 T01380095
KFSO - Highgate, Vermont, USA
Distance from station: NW 77mi, 123km
Updated: 10/15/2021 10:35am
NOT Current

 
2021/10/15 14:35 KFSO 151435Z AUTO RMK AO2 PWINO